San Luis Obispo (SBP/KSBP)

Map

Destinations

Information

Location
San Luis Obispo, CA
Local Time
11:22 / 11:22 am
GMT Time
18:22 / 6:22 pm
Gates
3
No FAA reported delays
METAR KSBP 201756Z 32015KT 10SM CLR 27/07 A2990 RMK AO2 SLP123 T02670067 10267 20161 58002
TAF KSBP 201743Z 2018/2118 32012KT P6SM SKC FM202000 32015KT P6SM SKC FM202200 31020G30KT P6SM SKC FM210300 31008KT P6SM SKC FM210900 VRB03KT P6SM OVC010